createdAt,value
2018-11-20T00:01:38.096Z,102111.05
2018-11-20T00:04:30.864Z,102110.53
2018-11-20T00:07:31.746Z,102112.77
2018-11-20T00:10:29.378Z,102113.53
2018-11-20T00:13:26.362Z,102112.53
2018-11-20T00:16:15.580Z,102114.80
2018-11-20T00:19:12.568Z,102109.73
2018-11-20T00:22:17.284Z,102097.39
2018-11-20T00:25:10.929Z,102105.94
2018-11-20T00:27:59.477Z,102107.86
2018-11-20T00:30:36.014Z,102106.02
2018-11-20T00:33:31.647Z,102106.16
2018-11-20T00:36:24.944Z,102109.88
2018-11-20T00:39:37.838Z,102094.00
2018-11-20T00:42:21.990Z,102084.52
2018-11-20T00:45:25.583Z,102081.17
2018-11-20T00:48:22.611Z,102086.23
2018-11-20T00:51:15.807Z,102099.27
2018-11-20T00:54:34.569Z,102086.83
2018-11-20T00:57:37.581Z,102059.14
2018-11-20T01:00:30.242Z,102099.81
2018-11-20T01:03:18.818Z,102089.92
2018-11-20T01:06:34.121Z,102092.17
2018-11-20T01:12:59.972Z,102073.91
2018-11-20T01:15:52.383Z,102084.64
2018-11-20T01:18:47.111Z,102098.59
2018-11-20T01:21:39.777Z,102077.89
2018-11-20T01:24:33.130Z,102071.86
2018-11-20T01:27:41.955Z,102070.55
2018-11-20T01:30:43.854Z,102059.36
2018-11-20T01:33:33.419Z,102051.07
2018-11-20T01:36:21.355Z,102054.34
2018-11-20T01:39:19.125Z,102054.15
2018-11-20T01:42:23.705Z,102055.06
2018-11-20T01:45:05.549Z,102056.36
2018-11-20T01:47:54.544Z,102043.76
2018-11-20T01:50:50.253Z,102034.28
2018-11-20T01:53:38.311Z,102029.47
2018-11-20T01:56:26.596Z,102030.39
2018-11-20T01:59:14.301Z,102032.14
2018-11-20T02:02:18.913Z,102028.33
2018-11-20T02:05:20.653Z,102023.17
2018-11-20T02:08:28.387Z,102016.22
2018-11-20T02:11:21.255Z,102010.56
2018-11-20T02:14:44.997Z,102002.27
2018-11-20T02:18:08.838Z,102001.85
2018-11-20T02:20:51.969Z,101992.72
2018-11-20T02:23:41.506Z,101986.56
2018-11-20T02:26:28.977Z,101983.63
2018-11-20T02:29:17.328Z,101976.30
2018-11-20T02:32:05.409Z,101965.91
2018-11-20T02:35:13.281Z,101968.42
2018-11-20T02:38:21.223Z,101957.16
2018-11-20T02:41:09.456Z,101955.66
2018-11-20T02:43:59.248Z,101952.19
2018-11-20T02:46:53.966Z,101943.55
2018-11-20T02:49:36.981Z,101938.97
2018-11-20T02:52:35.609Z,101931.72
2018-11-20T02:55:24.155Z,101914.45
2018-11-20T02:58:25.839Z,101907.95
2018-11-20T03:01:18.311Z,101912.73
2018-11-20T03:04:13.556Z,101909.25
2018-11-20T03:06:59.557Z,101895.88
2018-11-20T03:09:50.326Z,101902.03
2018-11-20T03:12:38.616Z,101894.23
2018-11-20T03:15:26.716Z,101892.94
2018-11-20T03:18:31.293Z,101892.55
2018-11-20T03:21:17.569Z,101884.34
2018-11-20T03:23:57.831Z,101877.42
2018-11-20T03:26:47.389Z,101880.09
2018-11-20T03:30:07.213Z,101878.56
2018-11-20T03:32:59.783Z,101872.19
2018-11-20T03:35:56.511Z,101869.23
2018-11-20T03:38:44.623Z,101851.92
2018-11-20T03:41:25.387Z,101850.23
2018-11-20T03:44:06.739Z,101854.67
2018-11-20T03:47:02.367Z,101854.25
2018-11-20T03:50:00.965Z,101853.41
2018-11-20T03:52:59.371Z,101840.03
2018-11-20T03:55:40.267Z,101835.71
2018-11-20T03:58:33.385Z,101834.88
2018-11-20T04:01:37.900Z,101830.59
2018-11-20T04:04:39.405Z,101829.67
2018-11-20T04:07:37.497Z,101825.39
2018-11-20T04:10:27.206Z,101829.67
2018-11-20T04:13:16.771Z,101821.42
2018-11-20T04:15:59.298Z,101817.59
2018-11-20T04:18:54.881Z,101816.82
2018-11-20T04:21:44.441Z,101814.26
2018-11-20T04:24:34.017Z,101818.23
2018-11-20T04:27:33.869Z,101803.05
2018-11-20T04:31:13.771Z,101806.08
2018-11-20T04:34:03.510Z,101802.53
2018-11-20T04:37:03.317Z,101789.28
2018-11-20T04:39:41.966Z,101795.02
2018-11-20T04:42:30.270Z,101790.23
2018-11-20T04:45:18.619Z,101783.81
2018-11-20T04:48:08.187Z,101781.06
2018-11-20T04:51:09.891Z,101787.14
2018-11-20T04:54:05.207Z,101784.20
2018-11-20T04:57:57.992Z,101716.78
2018-11-20T05:00:48.730Z,101771.34
2018-11-20T05:03:43.500Z,101778.05
2018-11-20T05:06:30.759Z,101775.87
2018-11-20T05:09:17.706Z,101766.67
2018-11-20T05:12:05.876Z,101760.59
2018-11-20T05:15:12.923Z,101757.05
2018-11-20T05:18:07.237Z,101757.47
2018-11-20T05:20:54.413Z,101749.53
2018-11-20T05:23:45.945Z,101751.25
2018-11-20T05:26:43.631Z,101755.08
2018-11-20T05:29:30.575Z,101744.16
2018-11-20T05:32:17.445Z,101752.80
2018-11-20T05:35:18.047Z,101757.08
2018-11-20T05:37:55.547Z,101755.40
2018-11-20T05:40:35.927Z,101755.44
2018-11-20T05:43:23.947Z,101754.55
2018-11-20T05:46:16.812Z,101754.63
2018-11-20T05:49:11.111Z,101747.60
2018-11-20T05:51:57.965Z,101751.36
2018-11-20T05:54:40.416Z,101746.41
2018-11-20T05:57:27.468Z,101752.45
2018-11-20T06:00:15.809Z,101739.45
2018-11-20T06:03:13.085Z,101735.48
2018-11-20T06:06:01.483Z,101738.55
2018-11-20T06:08:41.846Z,101741.56
2018-11-20T06:11:31.114Z,101742.05
2018-11-20T06:14:22.171Z,101748.23
2018-11-20T06:17:08.965Z,101746.59
2018-11-20T06:19:53.685Z,101745.36
2018-11-20T06:22:50.961Z,101735.91
2018-11-20T06:25:45.582Z,101741.14
2018-11-20T06:28:33.135Z,101745.52
2018-11-20T06:31:27.377Z,101748.30
2018-11-20T06:34:13.056Z,101739.56
2018-11-20T06:37:04.084Z,101753.75
2018-11-20T06:40:00.584Z,101750.30
2018-11-20T06:42:47.732Z,101746.34
2018-11-20T06:45:48.401Z,101748.05
2018-11-20T06:48:49.467Z,101746.30
2018-11-20T06:51:25.268Z,101751.53
2018-11-20T06:54:16.978Z,101748.94
2018-11-20T06:57:23.400Z,101754.63
2018-11-20T07:00:29.996Z,101745.87
2018-11-20T07:03:27.009Z,101755.75
2018-11-20T07:06:08.884Z,101750.41
2018-11-20T07:08:56.216Z,101750.84
2018-11-20T07:11:42.001Z,101765.13
2018-11-20T07:14:33.226Z,101768.50
2018-11-20T07:17:28.460Z,101762.95
2018-11-20T07:20:17.966Z,101759.41
2018-11-20T07:23:12.140Z,101767.66
2018-11-20T07:25:49.365Z,101776.71
2018-11-20T07:28:36.016Z,101776.64
2018-11-20T07:31:23.553Z,101778.78
2018-11-20T07:34:10.475Z,101784.33
2018-11-20T07:36:57.608Z,101779.83
2018-11-20T07:39:48.540Z,101773.58
2018-11-20T07:42:26.617Z,101761.75
2018-11-20T07:45:10.440Z,101757.28
2018-11-20T07:48:01.943Z,101761.04
2018-11-20T07:50:38.833Z,101751.48
2018-11-20T07:53:25.995Z,101752.53
2018-11-20T07:56:17.180Z,101748.18
2018-11-20T07:59:07.656Z,101749.34
2018-11-20T08:01:58.580Z,101765.50
2018-11-20T08:04:52.744Z,101751.98
2018-11-20T08:07:33.908Z,101749.21
2018-11-20T08:10:10.127Z,101734.33
2018-11-20T08:12:55.687Z,101725.41
2018-11-20T08:15:34.600Z,101721.06
2018-11-20T08:18:22.054Z,101738.86
2018-11-20T08:21:10.447Z,101739.01
2018-11-20T08:23:57.718Z,101732.94
2018-11-20T08:26:49.047Z,101726.57
2018-11-20T08:29:40.340Z,101705.86
2018-11-20T08:32:26.236Z,101714.89
2018-11-20T08:35:20.593Z,101705.81
2018-11-20T08:38:12.653Z,101700.16
2018-11-20T08:40:59.513Z,101684.48
2018-11-20T08:43:47.827Z,101697.84
2018-11-20T08:46:34.650Z,101685.02
2018-11-20T08:49:32.374Z,101681.02
2018-11-20T08:52:29.766Z,101675.37
2018-11-20T08:55:16.625Z,101670.64
2018-11-20T08:58:03.548Z,101684.67
2018-11-20T09:01:00.833Z,101689.78
2018-11-20T09:03:47.585Z,101683.66
2018-11-20T09:06:41.612Z,101698.31
2018-11-20T09:09:28.649Z,101689.55
2018-11-20T09:12:23.088Z,101680.75
2018-11-20T09:15:17.387Z,101677.98
2018-11-20T09:18:08.719Z,101681.64
2018-11-20T09:21:03.128Z,101682.16
2018-11-20T09:23:47.636Z,101686.23
2018-11-20T09:26:51.113Z,101665.11
2018-11-20T09:29:42.157Z,101672.97
2018-11-20T09:32:26.880Z,101677.33
2018-11-20T09:35:18.530Z,101679.57
2018-11-20T09:37:59.650Z,101679.57
2018-11-20T09:41:04.287Z,101676.52
2018-11-20T09:44:46.074Z,101671.56
2018-11-20T09:47:47.010Z,101662.58
2018-11-20T09:50:24.013Z,101649.06
2018-11-20T09:53:25.643Z,101656.02
2018-11-20T09:56:12.348Z,101668.23
2018-11-20T09:59:00.713Z,101663.45
2018-11-20T10:01:51.546Z,101656.89
2018-11-20T10:04:38.432Z,101664.75
2018-11-20T10:07:42.030Z,101664.82
2018-11-20T10:10:28.872Z,101664.40
2018-11-20T10:13:26.329Z,101675.21
2018-11-20T10:16:14.600Z,101645.86
2018-11-20T10:18:54.719Z,101666.71
2018-11-20T10:21:41.642Z,101659.27
2018-11-20T10:24:29.908Z,101658.92
2018-11-20T10:27:18.351Z,101655.48
2018-11-20T10:29:59.579Z,101657.30
2018-11-20T10:32:46.378Z,101653.83
2018-11-20T10:35:33.799Z,101655.23
2018-11-20T10:38:21.554Z,101654.88
2018-11-20T10:41:08.429Z,101653.99
2018-11-20T10:44:02.400Z,101657.53
2018-11-20T10:46:49.326Z,101653.12
2018-11-20T10:49:34.397Z,101649.05
2018-11-20T10:52:25.566Z,101648.53
2018-11-20T10:55:13.448Z,101643.43
2018-11-20T10:57:58.791Z,101641.29
2018-11-20T11:00:45.682Z,101639.18
2018-11-20T11:03:46.011Z,101628.30
2018-11-20T11:06:35.336Z,101635.54
2018-11-20T11:09:21.884Z,101626.91
2018-11-20T11:12:00.056Z,101621.99
2018-11-20T11:14:48.428Z,101620.59
2018-11-20T11:17:39.777Z,101617.54
2018-11-20T11:20:26.956Z,101605.88
2018-11-20T11:23:18.153Z,101601.17
2018-11-20T11:25:59.433Z,101595.84
2018-11-20T11:29:06.268Z,101608.80
2018-11-20T11:31:52.619Z,101596.59
2018-11-20T11:34:43.735Z,101613.30
2018-11-20T11:37:31.716Z,101598.11
2018-11-20T11:40:22.726Z,101600.48
2018-11-20T11:43:08.368Z,101606.14
2018-11-20T11:46:04.302Z,101581.53
2018-11-20T11:48:55.625Z,101588.44
2018-11-20T11:51:38.436Z,101583.25
2018-11-20T11:54:31.418Z,101578.41
2018-11-20T11:57:38.198Z,101573.57
2018-11-20T12:00:23.123Z,101572.14
2018-11-20T12:03:11.482Z,101571.97
2018-11-20T12:05:51.810Z,101569.34
2018-11-20T12:08:39.789Z,101565.90
2018-11-20T12:11:28.159Z,101573.69
2018-11-20T12:14:22.532Z,101573.23
2018-11-20T12:17:08.315Z,101570.22
2018-11-20T12:20:08.900Z,101568.39
2018-11-20T12:22:56.526Z,101573.27
2018-11-20T12:25:56.757Z,101549.86
